»·PEaware :: SOO360 KLAS-KASE

SOO360 :: KLAS-KASE

FLIGHT INFORMATION

Flight Status: Arrived
Operator: Unknown
More flights by this operator :: More flights under this callsign
Pilot: Brandon G. (13)
Aircraft: BOEING 727-200
(B722)
More flights by this aircraft type
Origin: KLAS McCarran Intl
United States
Destination: KASE Aspen-Pitkin Co/Sardy
United States
More flights between these airports :: More routes between these airports
Route: TRALR9 VERKN HVE SAKES J80 DBL
File this flight plan on PilotEdge
Remarks:
Altitude:
(Current/Filed)
37,000ft
Speed:
(Current/Filed)
470kts
Departed: 09-Oct-18 03:24 PM
Arrived: 09-Oct-18 04:33 PM
Distance/Time
Traveled:
436nm/1:08
Distance/Time
To Go:
Arrived

Flight Plot

Page will automatically refresh every two minutes.

Flight plan parsing failed; only flown route is shown


Map Options




Map Legend


Flown Route
Filed Route
Departure Airport
Arrival Airport
Navaid (VOR, NDB)
Fix

Horizontal Profiles

Position Reports

Time Latitude Longitude Heading Altitude Ground
Speed
09-Oct-18 15:03 36.081209 -115.125711 89 2038ft 0kts
09-Oct-18 15:04 36.081209 -115.125711 89 2038ft 0kts
09-Oct-18 15:05 36.081209 -115.125711 89 2038ft 0kts
09-Oct-18 15:06 36.081209 -115.125711 89 2038ft 0kts
09-Oct-18 15:07 36.081209 -115.125711 89 2038ft 0kts
09-Oct-18 15:08 36.081209 -115.125711 89 2038ft 0kts
09-Oct-18 15:09 36.081209 -115.125711 89 2038ft 0kts
09-Oct-18 15:10 36.081209 -115.125711 89 2038ft 0kts
09-Oct-18 15:11 36.081209 -115.125711 89 2038ft 0kts
09-Oct-18 15:12 36.081209 -115.125711 89 2038ft 0kts
09-Oct-18 15:13 36.081209 -115.125711 89 2038ft 0kts
09-Oct-18 15:14 36.081209 -115.125711 89 2038ft 0kts
09-Oct-18 15:15 36.081286 -115.126195 129 2039ft 2kts
09-Oct-18 15:16 36.081644 -115.126386 179 2039ft 0kts
09-Oct-18 15:17 36.081643 -115.126386 179 2039ft 0kts
09-Oct-18 15:18 36.081640 -115.126386 179 2039ft 0kts
09-Oct-18 15:19 36.079559 -115.126381 179 2043ft 0kts
09-Oct-18 15:20 36.078835 -115.126363 177 2044ft 10kts
09-Oct-18 15:21 36.077654 -115.121755 129 2041ft 0kts
09-Oct-18 15:22 36.077581 -115.121655 133 2041ft 0kts
09-Oct-18 15:23 36.077581 -115.121655 133 2041ft 0kts
09-Oct-18 15:24 36.077581 -115.121655 133 2041ft 0kts
09-Oct-18 15:25 36.076888 -115.121286 184 2041ft 13kts
09-Oct-18 15:26 36.076535 -115.153473 271 2525ft 188kts
09-Oct-18 15:27 36.071628 -115.235552 240 5649ft 273kts
09-Oct-18 15:28 36.004333 -115.284277 204 7053ft 296kts
09-Oct-18 15:29 35.933890 -115.263204 118 7615ft 295kts
09-Oct-18 15:30 35.946248 -115.161751 71 11344ft 316kts
09-Oct-18 15:31 35.976816 -115.049838 65 14774ft 363kts
09-Oct-18 15:32 36.033467 -114.933186 56 17121ft 415kts
09-Oct-18 15:33 36.094594 -114.808934 55 20000ft 434kts
09-Oct-18 15:34 36.158330 -114.678721 54 22549ft 450kts
09-Oct-18 15:35 36.223697 -114.544713 53 24825ft 463kts
09-Oct-18 15:36 36.290576 -114.407024 52 26857ft 473kts
09-Oct-18 15:37 36.357813 -114.268028 52 28637ft 481kts
09-Oct-18 15:38 36.426688 -114.125024 51 30285ft 486kts
09-Oct-18 15:39 36.496121 -113.980271 50 31771ft 491kts
09-Oct-18 15:40 36.565736 -113.834501 50 33064ft 494kts
09-Oct-18 15:41 36.635849 -113.687055 50 34193ft 498kts
09-Oct-18 15:42 36.706372 -113.538099 50 34995ft 504kts
09-Oct-18 15:43 36.777473 -113.387208 50 35662ft 509kts
09-Oct-18 15:44 36.847957 -113.236957 51 36130ft 514kts
09-Oct-18 15:45 36.919868 -113.082943 51 36508ft 517kts
09-Oct-18 15:46 36.991410 -112.928878 50 36918ft 503kts
09-Oct-18 15:47 37.061054 -112.778428 50 36911ft 499kts
09-Oct-18 15:48 37.129149 -112.630553 50 36927ft 499kts
09-Oct-18 15:49 37.198191 -112.480023 50 36934ft 501kts
09-Oct-18 15:50 37.266420 -112.330507 51 36932ft 503kts
09-Oct-18 15:51 37.335205 -112.179051 50 36937ft 502kts
09-Oct-18 15:52 37.411752 -112.037142 37 36942ft 481kts
09-Oct-18 15:53 37.502903 -111.916942 36 36935ft 480kts
09-Oct-18 15:54 37.595160 -111.796123 36 36935ft 481kts
09-Oct-18 15:55 37.687282 -111.675070 36 36936ft 482kts
09-Oct-18 15:56 37.778959 -111.554146 36 36934ft 483kts
09-Oct-18 15:57 37.871333 -111.431838 36 36939ft 484kts
09-Oct-18 15:58 37.961946 -111.311398 36 36902ft 484kts
09-Oct-18 15:59 38.054183 -111.188333 37 36857ft 484kts
09-Oct-18 16:00 38.144591 -111.067292 37 36865ft 484kts
09-Oct-18 16:01 38.237176 -110.942856 39 36865ft 486kts
09-Oct-18 16:02 38.329831 -110.817675 40 36866ft 488kts
09-Oct-18 16:03 38.423515 -110.693301 33 36856ft 482kts
09-Oct-18 16:04 38.527348 -110.586715 32 36866ft 481kts
09-Oct-18 16:05 38.631549 -110.479726 32 36863ft 483kts
09-Oct-18 16:06 38.735285 -110.372806 31 36864ft 478kts
09-Oct-18 16:07 38.826283 -110.256454 59 36864ft 496kts
09-Oct-18 16:08 38.862729 -110.084148 72 36850ft 503kts
09-Oct-18 16:09 38.890659 -109.909262 73 36847ft 501kts
09-Oct-18 16:10 38.917859 -109.734572 73 36850ft 499kts
09-Oct-18 16:11 38.944630 -109.560758 73 36851ft 499kts
09-Oct-18 16:12 38.971272 -109.385876 74 36858ft 502kts
09-Oct-18 16:13 38.997015 -109.214890 75 36488ft 482kts
09-Oct-18 16:14 39.022207 -109.047043 78 33934ft 482kts
09-Oct-18 16:15 39.046672 -108.880682 79 31342ft 482kts
09-Oct-18 16:16 39.076011 -108.713976 74 28608ft 485kts
09-Oct-18 16:17 39.108208 -108.558913 74 27882ft 444kts
09-Oct-18 16:18 39.139430 -108.407597 75 26001ft 434kts
09-Oct-18 16:19 39.168223 -108.267063 75 24692ft 423kts
09-Oct-18 16:20 39.197430 -108.123521 75 23314ft 414kts
09-Oct-18 16:21 39.225616 -107.984088 75 22007ft 405kts
09-Oct-18 16:22 39.248747 -107.868958 75 20947ft 398kts
09-Oct-18 16:23 39.280213 -107.711351 75 19867ft 378kts
09-Oct-18 16:24 39.304855 -107.586982 75 19532ft 351kts
09-Oct-18 16:25 39.328450 -107.467299 75 18648ft 345kts
09-Oct-18 16:26 39.351240 -107.350957 75 17484ft 338kts
09-Oct-18 16:27 39.376425 -107.261579 50 16480ft 332kts
09-Oct-18 16:28 39.435435 -107.171917 49 15336ft 326kts
09-Oct-18 16:29 39.474979 -107.069468 69 14351ft 312kts
09-Oct-18 16:30 39.461575 -106.979583 156 14018ft 270kts
09-Oct-18 16:31 39.395526 -106.952598 159 13198ft 230kts
09-Oct-18 16:32 39.345423 -106.928349 161 11787ft 175kts
09-Oct-18 16:33 39.301282 -106.904391 158 10213ft 173kts
09-Oct-18 16:34 39.257229 -106.885229 160 8549ft 163kts
09-Oct-18 16:35 39.220270 -106.867136 101 7847ft 16kts
09-Oct-18 16:36 39.222220 -106.866941 48 7847ft 8kts
09-Oct-18 16:37 39.222297 -106.866024 88 7847ft 0kts
09-Oct-18 16:38 39.222297 -106.866024 88 7847ft 0kts
09-Oct-18 16:39 39.222297 -106.866024 88 7847ft 0kts
09-Oct-18 16:40 39.222297 -106.866024 88 7847ft 0kts
09-Oct-18 16:41 39.222297 -106.866024 88 7847ft 0kts
09-Oct-18 16:42 39.222297 -106.866024 88 7847ft 0kts
09-Oct-18 16:43 39.222297 -106.866024 88 7847ft 0kts
09-Oct-18 16:44 39.222297 -106.866024 88 7847ft 0kts
09-Oct-18 16:45 39.222297 -106.866024 88 7847ft 0kts
09-Oct-18 16:46 39.222297 -106.866024 88 7847ft 0kts
09-Oct-18 16:47 39.222297 -106.866024 88 7847ft 0kts
09-Oct-18 16:48 39.222297 -106.866024 88 7847ft 0kts
09-Oct-18 16:49 39.222297 -106.866024 88 7847ft 0kts

Navigation Log

Ident Type
Flight plan parsing failed, navigation log unavailable